Terminal Aerodrome Forecast
Issued by NWS

Home | Current Version | Previous Version | Text Only | Print | Product List | Glossary On
Versions: 1 2 3 4 5 6 7 8 9 10 11 12 13 14 15 16 17 18 19
000
FTUS44 KMAF 280800 AAB
TAFINK
TAF AMD
KINK 280813Z 2808/2906 14014KT P6SM SCT200
     FM281000 13014KT P6SM OVC009
     FM281500 14013KT P6SM BKN035
     FM281800 15014G24KT P6SM SCT045 BKN250
     FM290200 14014KT P6SM BKN200=

USA.gov is the U.S. government's official web portal to all federal, state and local government web resources and services.